createdAt,value
2023-01-25T00:01:07.221Z,13.77
2023-01-25T00:03:08.736Z,13.38
2023-01-25T00:05:12.039Z,13.93
2023-01-25T00:07:13.416Z,12.50
2023-01-25T00:09:15.947Z,13.07
2023-01-25T00:11:18.020Z,14.25
2023-01-25T00:13:19.381Z,14.57
2023-01-25T00:15:20.749Z,14.48
2023-01-25T00:17:22.126Z,14.05
2023-01-25T00:19:23.987Z,13.77
2023-01-25T00:21:27.752Z,13.75
2023-01-25T00:23:29.111Z,13.70
2023-01-25T00:25:30.472Z,13.15
2023-01-25T00:27:31.889Z,14.10
2023-01-25T00:30:10.730Z,12.75
2023-01-25T00:34:25.171Z,11.95
2023-01-25T00:36:28.488Z,13.15
2023-01-25T00:38:38.408Z,12.93
2023-01-25T00:40:39.819Z,13.50
2023-01-25T00:42:41.834Z,13.52
2023-01-25T00:44:43.652Z,13.48
2023-01-25T00:46:45.299Z,13.77
2023-01-25T00:48:46.747Z,12.50
2023-01-25T00:50:48.133Z,13.98
2023-01-25T00:52:49.496Z,13.45
2023-01-25T00:54:50.960Z,13.93
2023-01-25T00:56:53.810Z,13.25
2023-01-25T00:58:55.352Z,13.18
2023-01-25T01:00:57.464Z,14.00
2023-01-25T01:02:58.897Z,12.13
2023-01-25T01:05:00.401Z,13.02
2023-01-25T01:07:01.924Z,12.45
2023-01-25T01:09:04.183Z,12.35
2023-01-25T01:11:09.442Z,11.13
2023-01-25T01:13:10.796Z,11.00
2023-01-25T01:15:12.219Z,12.23
2023-01-25T01:17:13.574Z,12.35
2023-01-25T01:19:15.049Z,11.35
2023-01-25T01:21:16.863Z,10.10
2023-01-25T01:23:18.894Z,11.18
2023-01-25T01:25:20.433Z,11.07
2023-01-25T01:27:21.857Z,11.45
2023-01-25T01:29:23.235Z,11.02
2023-01-25T01:31:25.443Z,10.60
2023-01-25T01:33:26.908Z,11.65
2023-01-25T01:35:32.860Z,11.90
2023-01-25T01:37:34.234Z,11.15
2023-01-25T01:39:35.620Z,12.15
2023-01-25T01:41:37.646Z,11.25
2023-01-25T01:43:39.621Z,12.60
2023-01-25T01:45:57.602Z,11.68
2023-01-25T01:47:58.977Z,12.25
2023-01-25T01:50:04.972Z,11.63
2023-01-25T01:52:17.729Z,10.98
2023-01-25T01:54:28.103Z,12.40
2023-01-25T01:56:46.742Z,11.05
2023-01-25T01:58:52.102Z,11.93
2023-01-25T02:00:53.584Z,11.73
2023-01-25T02:02:55.714Z,12.15
2023-01-25T02:05:00.960Z,11.75
2023-01-25T02:07:15.917Z,11.98
2023-01-25T02:09:23.462Z,12.00
2023-01-25T02:11:26.412Z,11.90
2023-01-25T02:13:28.470Z,11.55
2023-01-25T02:15:38.524Z,11.18
2023-01-25T02:17:41.566Z,11.10
2023-01-25T02:19:58.795Z,12.25
2023-01-25T02:22:07.642Z,12.48
2023-01-25T02:24:32.488Z,12.35
2023-01-25T02:26:33.859Z,12.00
2023-01-25T02:28:40.137Z,11.93
2023-01-25T02:30:42.947Z,13.07
2023-01-25T02:32:44.529Z,12.80
2023-01-25T02:34:45.929Z,11.95
2023-01-25T02:36:47.334Z,13.27
2023-01-25T02:38:54.492Z,12.48
2023-01-25T02:41:05.307Z,13.50
2023-01-25T02:43:06.705Z,12.88
2023-01-25T02:45:11.390Z,13.65
2023-01-25T02:47:12.810Z,12.43
2023-01-25T02:49:15.497Z,12.52
2023-01-25T02:51:16.901Z,13.10
2023-01-25T02:53:18.338Z,13.05
2023-01-25T02:55:19.749Z,13.60
2023-01-25T02:57:23.131Z,13.13
2023-01-25T02:59:24.711Z,12.98
2023-01-25T03:01:26.164Z,13.10
2023-01-25T03:03:27.597Z,13.43
2023-01-25T03:05:28.966Z,13.65
2023-01-25T03:07:30.354Z,13.73
2023-01-25T03:09:31.765Z,13.77
2023-01-25T03:11:33.621Z,12.60
2023-01-25T03:13:35.622Z,14.77
2023-01-25T03:15:36.992Z,14.60
2023-01-25T03:17:38.427Z,13.77
2023-01-25T03:19:39.880Z,14.27
2023-01-25T03:21:41.503Z,13.95
2023-01-25T03:23:44.368Z,14.05
2023-01-25T03:25:45.845Z,13.55
2023-01-25T03:27:47.230Z,14.48
2023-01-25T03:29:48.782Z,13.65
2023-01-25T03:31:50.304Z,13.30
2023-01-25T03:33:51.840Z,13.48
2023-01-25T03:35:54.802Z,13.55
2023-01-25T03:37:56.269Z,14.02
2023-01-25T03:39:58.202Z,13.43
2023-01-25T03:41:59.635Z,12.90
2023-01-25T03:44:01.027Z,13.02
2023-01-25T03:46:02.487Z,14.35
2023-01-25T03:48:04.565Z,14.45
2023-01-25T03:50:07.166Z,13.98
2023-01-25T03:52:09.088Z,12.18
2023-01-25T03:54:10.491Z,12.35
2023-01-25T03:56:17.484Z,12.68
2023-01-25T03:58:21.624Z,11.45
2023-01-25T04:00:23.185Z,11.38
2023-01-25T04:02:30.126Z,11.25
2023-01-25T04:04:31.658Z,9.90
2023-01-25T04:06:33.072Z,10.38
2023-01-25T04:08:34.750Z,11.13
2023-01-25T04:10:36.222Z,11.00
2023-01-25T04:12:38.242Z,9.68
2023-01-25T04:14:44.699Z,10.00
2023-01-25T04:16:46.602Z,10.60
2023-01-25T04:18:48.524Z,10.18
2023-01-25T04:20:54.590Z,9.25
2023-01-25T04:22:56.221Z,8.27
2023-01-25T04:24:57.574Z,8.82
2023-01-25T04:26:59.574Z,10.23
2023-01-25T04:29:01.425Z,9.57
2023-01-25T04:31:03.622Z,9.82
2023-01-25T04:33:07.699Z,9.85
2023-01-25T04:35:10.297Z,9.93
2023-01-25T04:37:12.095Z,8.50
2023-01-25T04:39:13.625Z,8.57
2023-01-25T04:41:15.371Z,9.25
2023-01-25T04:43:17.428Z,8.70
2023-01-25T04:45:18.830Z,8.88
2023-01-25T04:47:20.227Z,9.48
2023-01-25T04:49:21.654Z,9.57
2023-01-25T04:51:26.583Z,9.65
2023-01-25T04:53:28.004Z,8.95
2023-01-25T04:55:32.094Z,8.88
2023-01-25T04:57:34.781Z,8.38
2023-01-25T04:59:36.234Z,7.93
2023-01-25T05:01:37.670Z,8.93
2023-01-25T05:03:40.668Z,7.47
2023-01-25T05:05:48.725Z,7.38
2023-01-25T05:07:50.155Z,7.35
2023-01-25T05:09:51.740Z,8.15
2023-01-25T05:11:53.554Z,7.38
2023-01-25T05:13:54.983Z,7.97
2023-01-25T05:15:57.424Z,9.27
2023-01-25T05:17:58.803Z,8.10
2023-01-25T05:20:00.194Z,7.82
2023-01-25T05:22:03.666Z,7.28
2023-01-25T05:24:05.306Z,8.60
2023-01-25T05:26:27.393Z,7.90
2023-01-25T05:28:29.118Z,9.27
2023-01-25T05:30:30.533Z,8.43
2023-01-25T05:32:32.149Z,8.88
2023-01-25T05:34:34.529Z,7.47
2023-01-25T05:36:35.913Z,7.60
2023-01-25T05:38:37.804Z,7.20
2023-01-25T05:40:39.454Z,7.05
2023-01-25T05:42:41.818Z,6.88
2023-01-25T05:44:46.285Z,7.57
2023-01-25T05:46:49.064Z,7.35
2023-01-25T05:48:51.140Z,7.88
2023-01-25T05:50:53.121Z,8.35
2023-01-25T05:52:54.768Z,8.77
2023-01-25T05:54:56.457Z,7.45
2023-01-25T05:56:58.515Z,8.35
2023-01-25T05:59:01.453Z,8.85
2023-01-25T06:01:04.800Z,8.40
2023-01-25T06:03:06.360Z,8.55
2023-01-25T06:05:09.103Z,8.30
2023-01-25T06:07:10.737Z,8.38
2023-01-25T06:09:13.574Z,7.78
2023-01-25T06:11:18.003Z,8.60
2023-01-25T06:13:19.818Z,8.98
2023-01-25T06:15:21.620Z,7.30
2023-01-25T06:17:23.261Z,8.75
2023-01-25T06:19:25.557Z,8.02
2023-01-25T06:21:27.596Z,8.98
2023-01-25T06:23:29.392Z,8.43
2023-01-25T06:25:30.815Z,8.95
2023-01-25T06:27:32.555Z,8.27
2023-01-25T06:29:34.092Z,8.10
2023-01-25T06:31:35.579Z,8.77
2023-01-25T06:33:37.561Z,8.98
2023-01-25T06:35:40.309Z,8.15
2023-01-25T06:37:41.743Z,8.93
2023-01-25T06:39:43.189Z,8.68
2023-01-25T06:41:44.574Z,8.48
2023-01-25T06:43:47.929Z,9.75
2023-01-25T06:45:49.407Z,8.73
2023-01-25T06:47:51.962Z,9.60
2023-01-25T06:49:53.626Z,10.23
2023-01-25T06:51:56.564Z,10.80
2023-01-25T06:54:03.164Z,9.27
2023-01-25T06:56:10.027Z,10.02
2023-01-25T06:58:12.517Z,10.10
2023-01-25T07:00:17.554Z,9.15
2023-01-25T07:02:19.386Z,9.43
2023-01-25T07:04:23.104Z,9.07
2023-01-25T07:06:27.077Z,9.40
2023-01-25T07:08:28.857Z,9.90
2023-01-25T07:10:31.878Z,8.88
2023-01-25T07:12:34.749Z,8.55
2023-01-25T07:14:36.755Z,9.85
2023-01-25T07:16:38.626Z,10.02
2023-01-25T07:18:40.608Z,9.23
2023-01-25T07:20:42.318Z,9.48
2023-01-25T07:22:43.775Z,10.20
2023-01-25T07:24:50.011Z,10.40
2023-01-25T07:26:51.461Z,9.95
2023-01-25T07:28:54.428Z,9.52
2023-01-25T07:30:55.939Z,9.68
2023-01-25T07:32:59.601Z,9.80
2023-01-25T07:35:03.085Z,9.80
2023-01-25T07:37:04.454Z,10.65
2023-01-25T07:39:06.850Z,10.00
2023-01-25T07:41:08.310Z,10.32
2023-01-25T07:43:09.722Z,9.93
2023-01-25T07:45:11.771Z,9.20
2023-01-25T07:47:13.789Z,9.38
2023-01-25T07:49:15.185Z,9.60
2023-01-25T07:51:26.877Z,10.18
2023-01-25T07:53:28.249Z,9.35
2023-01-25T07:55:31.146Z,10.25
2023-01-25T07:57:32.533Z,10.30
2023-01-25T07:59:34.177Z,10.27
2023-01-25T08:01:36.928Z,10.30
2023-01-25T08:03:39.579Z,10.63
2023-01-25T08:05:44.896Z,11.57
2023-01-25T08:07:47.321Z,10.52
2023-01-25T08:09:48.903Z,11.82
2023-01-25T08:11:50.532Z,9.40
2023-01-25T08:13:52.287Z,10.73
2023-01-25T08:15:56.487Z,9.57
2023-01-25T08:18:01.121Z,10.50
2023-01-25T08:20:03.267Z,11.20
2023-01-25T08:22:08.116Z,9.95
2023-01-25T08:24:09.945Z,9.45
2023-01-25T08:26:17.564Z,9.73
2023-01-25T08:28:19.207Z,11.77
2023-01-25T08:30:20.753Z,10.38
2023-01-25T08:32:22.195Z,8.63
2023-01-25T08:34:24.503Z,10.25
2023-01-25T08:36:28.213Z,9.45
2023-01-25T08:38:30.064Z,10.50
2023-01-25T08:40:31.578Z,10.18
2023-01-25T08:42:32.948Z,10.18
2023-01-25T08:44:34.321Z,10.75
2023-01-25T08:46:36.002Z,10.32
2023-01-25T08:48:37.979Z,10.05
2023-01-25T08:50:39.385Z,10.82
2023-01-25T08:52:40.779Z,10.05
2023-01-25T08:54:44.734Z,10.23
2023-01-25T08:56:46.185Z,11.30
2023-01-25T08:58:49.614Z,9.50
2023-01-25T09:00:51.594Z,10.73
2023-01-25T09:02:53.231Z,10.88
2023-01-25T09:04:54.943Z,9.52
2023-01-25T09:06:56.318Z,10.75
2023-01-25T09:09:00.180Z,11.05
2023-01-25T09:11:07.200Z,10.52
2023-01-25T09:13:08.950Z,11.52
2023-01-25T09:15:10.911Z,10.95
2023-01-25T09:17:13.074Z,11.63
2023-01-25T09:19:14.632Z,11.68
2023-01-25T09:21:17.802Z,11.05
2023-01-25T09:23:22.835Z,10.82
2023-01-25T09:25:24.204Z,11.60
2023-01-25T09:27:26.062Z,12.75
2023-01-25T09:29:27.891Z,10.73
2023-01-25T09:31:32.478Z,11.23
2023-01-25T09:33:38.524Z,10.57
2023-01-25T09:35:43.010Z,11.98
2023-01-25T09:37:44.749Z,11.43
2023-01-25T09:39:46.390Z,12.20
2023-01-25T09:42:15.358Z,11.65
2023-01-25T09:44:32.114Z,11.48
2023-01-25T09:46:39.979Z,12.07
2023-01-25T09:50:03.216Z,11.68
2023-01-25T09:51:34.109Z,11.80
2023-01-25T09:53:40.761Z,11.45
2023-01-25T09:55:42.614Z,12.45
2023-01-25T09:57:46.572Z,11.68
2023-01-25T09:59:51.460Z,11.38
2023-01-25T10:02:01.888Z,11.88
2023-01-25T10:04:09.505Z,12.85
2023-01-25T10:06:13.881Z,12.65
2023-01-25T10:08:53.014Z,12.63
2023-01-25T10:11:11.871Z,11.07
2023-01-25T10:13:21.546Z,12.43
2023-01-25T10:15:28.885Z,13.25
2023-01-25T10:20:10.384Z,12.02
2023-01-25T10:22:17.439Z,12.73
2023-01-25T10:24:28.053Z,12.82
2023-01-25T10:26:38.655Z,12.98
2023-01-25T10:29:07.469Z,12.35
2023-01-25T10:31:22.713Z,13.88
2023-01-25T10:33:24.355Z,13.20
2023-01-25T10:35:41.249Z,12.07
2023-01-25T10:37:44.952Z,12.50
2023-01-25T10:40:18.343Z,12.10
2023-01-25T10:42:20.653Z,11.75
2023-01-25T10:44:24.728Z,11.50
2023-01-25T10:46:26.776Z,13.50
2023-01-25T10:48:35.671Z,12.95
2023-01-25T10:50:37.089Z,13.05
2023-01-25T10:52:38.923Z,13.45
2023-01-25T10:54:40.452Z,12.02
2023-01-25T10:56:43.651Z,12.00
2023-01-25T10:58:54.156Z,11.63
2023-01-25T11:00:56.171Z,11.88
2023-01-25T11:02:58.268Z,11.05
2023-01-25T11:05:26.000Z,11.10
2023-01-25T11:07:29.959Z,11.98
2023-01-25T11:09:39.298Z,9.65
2023-01-25T11:11:41.629Z,10.57
2023-01-25T11:13:43.652Z,11.98
2023-01-25T11:15:51.620Z,11.35
2023-01-25T11:18:16.140Z,10.80
2023-01-25T11:20:23.485Z,11.43
2023-01-25T11:24:34.288Z,9.82
2023-01-25T11:26:38.366Z,9.55
2023-01-25T11:28:40.303Z,9.65
2023-01-25T11:30:42.276Z,10.95
2023-01-25T11:32:43.827Z,10.77
2023-01-25T11:34:45.439Z,9.40
2023-01-25T11:37:16.645Z,11.05
2023-01-25T11:39:37.650Z,10.77
2023-01-25T11:42:01.971Z,9.85
2023-01-25T11:44:37.082Z,9.10
2023-01-25T11:47:02.944Z,9.50
2023-01-25T11:49:28.872Z,9.88
2023-01-25T11:51:45.537Z,9.80
2023-01-25T11:54:11.497Z,9.10
2023-01-25T11:56:36.963Z,8.70
2023-01-25T11:59:05.586Z,9.20
2023-01-25T12:01:25.118Z,7.78
2023-01-25T12:03:51.184Z,8.35
2023-01-25T12:08:38.529Z,7.75
2023-01-25T12:10:55.111Z,7.95
2023-01-25T12:13:03.678Z,8.95
2023-01-25T12:15:16.784Z,8.23
2023-01-25T12:17:52.284Z,8.73
2023-01-25T12:21:00.415Z,7.65
2023-01-25T12:23:27.837Z,7.75
2023-01-25T12:25:47.270Z,7.60
2023-01-25T12:28:00.958Z,8.20
2023-01-25T12:31:01.141Z,8.50
2023-01-25T12:33:14.970Z,8.73
2023-01-25T12:35:39.998Z,7.85
2023-01-25T12:37:44.581Z,8.35
2023-01-25T12:39:58.145Z,7.82
2023-01-25T12:44:23.809Z,8.00
2023-01-25T12:46:33.924Z,7.85
2023-01-25T12:48:41.606Z,9.15
2023-01-25T12:50:56.680Z,8.15
2023-01-25T12:53:05.059Z,7.50
2023-01-25T12:55:15.283Z,7.72
2023-01-25T12:57:27.380Z,9.15
2023-01-25T12:59:32.099Z,8.48
2023-01-25T13:01:55.458Z,9.35
2023-01-25T13:04:41.755Z,9.45
2023-01-25T13:06:51.896Z,8.32
2023-01-25T13:09:07.981Z,9.13
2023-01-25T13:11:22.075Z,9.57
2023-01-25T13:13:29.221Z,9.25
2023-01-25T13:15:39.207Z,8.35
2023-01-25T13:17:41.272Z,9.77
2023-01-25T13:19:43.520Z,9.00
2023-01-25T13:21:47.045Z,9.90
2023-01-25T13:24:18.523Z,9.52
2023-01-25T13:26:29.273Z,9.10
2023-01-25T13:28:43.347Z,8.45
2023-01-25T13:30:53.115Z,10.05
2023-01-25T13:32:58.559Z,10.48
2023-01-25T13:35:01.394Z,9.93
2023-01-25T13:37:17.211Z,9.73
2023-01-25T13:39:24.307Z,8.95
2023-01-25T13:41:25.807Z,11.05
2023-01-25T13:43:27.350Z,9.45
2023-01-25T13:45:30.159Z,8.45
2023-01-25T13:47:33.224Z,9.43
2023-01-25T13:49:42.720Z,9.30
2023-01-25T13:51:44.300Z,9.73
2023-01-25T13:53:55.945Z,9.00
2023-01-25T13:55:58.361Z,8.75
2023-01-25T13:58:38.561Z,9.20
2023-01-25T14:00:51.528Z,8.93
2023-01-25T14:02:56.014Z,9.55
2023-01-25T14:04:58.456Z,8.63
2023-01-25T14:07:02.853Z,10.43
2023-01-25T14:09:10.842Z,9.40
2023-01-25T14:11:22.355Z,9.63
2023-01-25T14:13:24.361Z,9.38
2023-01-25T14:15:28.923Z,9.95
2023-01-25T14:17:30.375Z,9.80
2023-01-25T14:19:32.116Z,9.50
2023-01-25T14:21:33.767Z,10.05
2023-01-25T14:23:35.159Z,8.55
2023-01-25T14:25:40.221Z,9.73
2023-01-25T14:27:51.098Z,10.15
2023-01-25T14:29:52.570Z,9.75
2023-01-25T14:31:54.046Z,10.10
2023-01-25T14:33:58.378Z,10.07
2023-01-25T14:36:22.778Z,10.23
2023-01-25T14:38:30.706Z,9.80
2023-01-25T14:40:32.166Z,10.05
2023-01-25T14:42:33.736Z,9.77
2023-01-25T14:44:35.342Z,9.38
2023-01-25T14:46:38.425Z,9.10
2023-01-25T14:48:42.995Z,10.38
2023-01-25T14:50:44.518Z,8.82
2023-01-25T14:52:45.912Z,11.40
2023-01-25T14:54:53.849Z,10.35
2023-01-25T14:57:00.704Z,9.68
2023-01-25T14:59:04.464Z,10.00
2023-01-25T15:01:28.660Z,9.98
2023-01-25T15:03:31.444Z,9.20
2023-01-25T15:05:37.106Z,9.45
2023-01-25T15:07:48.004Z,9.07
2023-01-25T15:10:15.605Z,8.75
2023-01-25T15:12:16.934Z,9.63
2023-01-25T15:14:21.433Z,8.80
2023-01-25T15:16:33.282Z,9.68
2023-01-25T15:18:43.873Z,9.18
2023-01-25T15:20:49.455Z,8.50
2023-01-25T15:22:50.822Z,8.85
2023-01-25T15:24:58.301Z,9.25
2023-01-25T15:27:00.186Z,9.23
2023-01-25T15:29:11.245Z,9.25
2023-01-25T15:31:22.067Z,9.82
2023-01-25T15:33:26.068Z,9.95
2023-01-25T15:35:28.697Z,8.55
2023-01-25T15:37:30.062Z,9.38
2023-01-25T15:39:32.579Z,9.85
2023-01-25T15:41:33.973Z,8.77
2023-01-25T15:43:35.444Z,9.70
2023-01-25T15:45:36.976Z,9.45
2023-01-25T15:47:38.950Z,9.73
2023-01-25T15:49:40.446Z,8.98
2023-01-25T15:51:41.804Z,11.10
2023-01-25T15:53:43.409Z,9.90
2023-01-25T15:55:49.783Z,9.50
2023-01-25T15:57:51.360Z,10.40
2023-01-25T15:59:55.583Z,9.88
2023-01-25T16:01:57.027Z,11.63
2023-01-25T16:03:59.812Z,10.75
2023-01-25T16:06:04.096Z,11.18
2023-01-25T16:08:05.737Z,11.77
2023-01-25T16:10:19.147Z,11.65
2023-01-25T16:12:22.219Z,10.27
2023-01-25T16:14:29.000Z,10.73
2023-01-25T16:16:30.579Z,10.38
2023-01-25T16:18:32.703Z,10.57
2023-01-25T16:20:34.122Z,11.75
2023-01-25T16:22:35.486Z,12.38
2023-01-25T16:24:39.426Z,11.88
2023-01-25T16:26:54.275Z,11.52
2023-01-25T16:28:55.839Z,12.30
2023-01-25T16:30:58.983Z,12.45
2023-01-25T16:33:00.675Z,13.20
2023-01-25T16:35:02.257Z,11.02
2023-01-25T16:37:03.706Z,14.20
2023-01-25T16:39:14.911Z,12.68
2023-01-25T16:41:16.944Z,12.90
2023-01-25T16:43:18.635Z,12.85
2023-01-25T16:45:20.107Z,13.45
2023-01-25T16:47:21.484Z,12.40
2023-01-25T16:49:28.067Z,12.15
2023-01-25T16:51:29.589Z,15.05
2023-01-25T16:53:30.951Z,15.55
2023-01-25T16:55:32.477Z,13.50
2023-01-25T16:57:33.832Z,13.60
2023-01-25T16:59:35.253Z,15.10
2023-01-25T17:01:39.798Z,13.98
2023-01-25T17:03:41.753Z,15.77
2023-01-25T17:05:43.141Z,15.90
2023-01-25T17:07:49.744Z,14.25
2023-01-25T17:09:51.192Z,14.75
2023-01-25T17:11:53.919Z,13.98
2023-01-25T17:13:57.773Z,15.27
2023-01-25T17:16:00.749Z,13.98
2023-01-25T17:18:02.161Z,14.35
2023-01-25T17:20:04.777Z,15.70
2023-01-25T17:22:06.149Z,16.38
2023-01-25T17:24:08.481Z,15.95
2023-01-25T17:26:12.601Z,15.50
2023-01-25T17:28:14.008Z,16.52
2023-01-25T17:30:15.517Z,16.88
2023-01-25T17:32:16.950Z,16.40
2023-01-25T17:34:19.200Z,16.80
2023-01-25T17:36:20.668Z,16.85
2023-01-25T17:38:23.836Z,16.58
2023-01-25T17:40:25.210Z,17.88
2023-01-25T17:42:26.593Z,17.50
2023-01-25T17:44:28.115Z,18.70
2023-01-25T17:46:33.285Z,18.95
2023-01-25T17:48:34.760Z,18.63
2023-01-25T17:50:37.059Z,17.98
2023-01-25T17:52:38.474Z,17.85
2023-01-25T17:54:40.213Z,20.42
2023-01-25T17:56:41.646Z,19.52
2023-01-25T17:58:43.054Z,17.88
2023-01-25T18:00:44.534Z,17.95
2023-01-25T18:02:46.116Z,19.38
2023-01-25T18:04:47.509Z,19.42
2023-01-25T18:06:48.937Z,19.92
2023-01-25T18:08:52.545Z,18.88
2023-01-25T18:10:58.625Z,18.13
2023-01-25T18:13:04.823Z,19.88
2023-01-25T18:15:07.411Z,19.80
2023-01-25T18:17:08.821Z,21.38
2023-01-25T18:19:10.869Z,21.83
2023-01-25T18:21:15.218Z,21.50
2023-01-25T18:23:16.627Z,21.75
2023-01-25T18:25:35.630Z,22.20
2023-01-25T18:27:41.598Z,22.20
2023-01-25T18:30:04.622Z,20.63
2023-01-25T18:32:06.672Z,19.95
2023-01-25T18:34:08.169Z,21.02
2023-01-25T18:36:16.415Z,20.77
2023-01-25T18:38:17.819Z,20.73
2023-01-25T18:40:19.797Z,20.83
2023-01-25T18:42:23.580Z,20.85
2023-01-25T18:44:24.982Z,20.70
2023-01-25T18:46:26.448Z,18.77
2023-01-25T18:48:31.792Z,18.98
2023-01-25T18:50:33.593Z,19.90
2023-01-25T18:52:35.857Z,19.33
2023-01-25T18:54:37.360Z,20.80
2023-01-25T18:56:38.723Z,20.75
2023-01-25T18:58:40.783Z,21.05
2023-01-25T19:00:42.179Z,19.27
2023-01-25T19:02:43.550Z,20.00
2023-01-25T19:04:45.687Z,20.85
2023-01-25T19:06:47.046Z,20.08
2023-01-25T19:08:54.164Z,19.58
2023-01-25T19:11:06.140Z,19.08
2023-01-25T19:13:07.560Z,18.63
2023-01-25T19:15:09.533Z,18.92
2023-01-25T19:17:11.181Z,17.50
2023-01-25T19:19:12.770Z,18.42
2023-01-25T19:21:16.387Z,17.60
2023-01-25T19:23:17.739Z,17.17
2023-01-25T19:25:19.186Z,17.73
2023-01-25T19:27:20.560Z,18.70
2023-01-25T19:29:22.285Z,17.20
2023-01-25T19:31:25.519Z,17.42
2023-01-25T19:33:26.976Z,19.25
2023-01-25T19:35:28.387Z,17.92
2023-01-25T19:37:29.746Z,19.05
2023-01-25T19:39:31.286Z,18.92
2023-01-25T19:41:33.856Z,19.52
2023-01-25T19:43:35.306Z,19.92
2023-01-25T19:45:36.665Z,18.38
2023-01-25T19:47:38.101Z,18.08
2023-01-25T19:49:39.500Z,19.65
2023-01-25T19:51:45.271Z,18.92
2023-01-25T19:53:52.100Z,18.17
2023-01-25T19:55:53.464Z,20.02
2023-01-25T19:57:54.918Z,20.42
2023-01-25T19:59:56.348Z,18.33
2023-01-25T20:01:59.296Z,19.50
2023-01-25T20:06:27.584Z,18.75
2023-01-25T20:08:30.715Z,17.50
2023-01-25T20:10:34.255Z,17.23
2023-01-25T20:12:35.626Z,17.23
2023-01-25T20:14:41.286Z,16.23
2023-01-25T20:16:42.807Z,18.65
2023-01-25T20:18:46.290Z,16.90
2023-01-25T20:21:01.019Z,18.02
2023-01-25T20:23:02.396Z,16.60
2023-01-25T20:25:04.015Z,15.90
2023-01-25T20:27:07.295Z,16.80
2023-01-25T20:29:10.712Z,15.40
2023-01-25T20:31:21.001Z,16.55
2023-01-25T20:33:22.409Z,18.40
2023-01-25T20:35:23.798Z,16.20
2023-01-25T20:37:25.159Z,15.77
2023-01-25T20:39:26.530Z,16.13
2023-01-25T20:41:27.997Z,18.83
2023-01-25T20:43:31.232Z,17.35
2023-01-25T20:45:34.732Z,16.40
2023-01-25T20:47:36.155Z,17.35
2023-01-25T20:49:38.190Z,17.58
2023-01-25T20:51:39.853Z,17.38
2023-01-25T20:53:42.213Z,18.00
2023-01-25T20:55:45.377Z,17.15
2023-01-25T20:57:46.884Z,17.13
2023-01-25T20:59:48.252Z,16.02
2023-01-25T21:01:50.522Z,15.70
2023-01-25T21:03:54.344Z,16.40
2023-01-25T21:05:58.286Z,15.80
2023-01-25T21:07:59.713Z,16.15
2023-01-25T21:10:01.099Z,15.15
2023-01-25T21:12:02.560Z,16.50
2023-01-25T21:14:04.841Z,15.55
2023-01-25T21:16:09.996Z,16.75
2023-01-25T21:18:11.413Z,15.68
2023-01-25T21:20:12.838Z,15.35
2023-01-25T21:22:14.217Z,14.73
2023-01-25T21:24:15.835Z,15.13
2023-01-25T21:26:22.924Z,16.02
2023-01-25T21:28:24.380Z,15.15
2023-01-25T21:30:28.235Z,15.73
2023-01-25T21:32:29.651Z,17.13
2023-01-25T21:34:33.419Z,16.45
2023-01-25T21:36:34.848Z,16.80
2023-01-25T21:38:36.342Z,16.70
2023-01-25T21:40:37.835Z,15.20
2023-01-25T21:42:39.175Z,15.00
2023-01-25T21:44:59.157Z,15.07
2023-01-25T21:49:40.437Z,13.27
2023-01-25T21:51:49.821Z,14.80
2023-01-25T21:53:51.235Z,15.50
2023-01-25T21:55:56.905Z,14.82
2023-01-25T21:57:58.398Z,14.10
2023-01-25T21:59:59.841Z,14.23
2023-01-25T22:02:01.211Z,16.25
2023-01-25T22:04:02.654Z,14.73
2023-01-25T22:06:04.116Z,16.20
2023-01-25T22:08:05.737Z,15.10
2023-01-25T22:10:07.578Z,14.68
2023-01-25T22:12:09.312Z,14.88
2023-01-25T22:14:10.685Z,14.45
2023-01-25T22:16:12.748Z,15.27
2023-01-25T22:18:14.137Z,13.57
2023-01-25T22:20:15.813Z,15.68
2023-01-25T22:22:17.171Z,14.95
2023-01-25T22:24:18.625Z,14.52
2023-01-25T22:26:22.524Z,16.10
2023-01-25T22:28:27.176Z,15.75
2023-01-25T22:30:31.007Z,15.55
2023-01-25T22:32:32.456Z,15.38
2023-01-25T22:34:33.890Z,15.32
2023-01-25T22:36:35.444Z,16.58
2023-01-25T22:38:36.879Z,15.07
2023-01-25T22:40:38.270Z,13.63
2023-01-25T22:42:39.655Z,15.18
2023-01-25T22:44:41.031Z,14.23
2023-01-25T22:46:42.450Z,13.82
2023-01-25T22:48:43.868Z,13.23
2023-01-25T22:50:45.480Z,13.88
2023-01-25T22:52:48.863Z,13.55
2023-01-25T22:54:50.804Z,15.32
2023-01-25T22:56:52.212Z,15.10
2023-01-25T22:58:53.972Z,16.60
2023-01-25T23:00:55.468Z,16.13
2023-01-25T23:02:56.882Z,14.43
2023-01-25T23:04:58.317Z,15.93
2023-01-25T23:07:02.882Z,14.00
2023-01-25T23:09:06.183Z,14.73
2023-01-25T23:11:11.011Z,14.52
2023-01-25T23:13:12.387Z,15.27
2023-01-25T23:15:15.593Z,15.40
2023-01-25T23:17:40.624Z,14.75
2023-01-25T23:19:41.996Z,16.08
2023-01-25T23:21:43.455Z,15.82
2023-01-25T23:23:45.230Z,16.25
2023-01-25T23:25:47.141Z,17.23
2023-01-25T23:27:49.376Z,17.35
2023-01-25T23:29:51.688Z,17.92
2023-01-25T23:31:53.107Z,17.52
2023-01-25T23:33:59.190Z,18.27
2023-01-25T23:36:09.938Z,18.15
2023-01-25T23:38:15.106Z,19.67
2023-01-25T23:40:16.822Z,19.20
2023-01-25T23:42:18.311Z,18.63
2023-01-25T23:44:19.701Z,19.48
2023-01-25T23:46:22.147Z,20.33
2023-01-25T23:48:23.668Z,19.73
2023-01-25T23:50:25.113Z,19.25
2023-01-25T23:52:27.035Z,18.63
2023-01-25T23:54:28.930Z,20.25
2023-01-25T23:56:30.337Z,18.80
2023-01-25T23:58:34.849Z,19.98
